createdAt,value
2022-12-29T00:02:16.917Z,1.80
2022-12-29T00:04:44.121Z,1.70
2022-12-29T00:07:11.300Z,1.75
2022-12-29T00:09:38.854Z,1.30
2022-12-29T00:12:06.401Z,1.52
2022-12-29T00:14:52.496Z,1.23
2022-12-29T00:17:19.631Z,1.40
2022-12-29T00:20:05.477Z,1.40
2022-12-29T00:22:51.527Z,1.20
2022-12-29T00:25:37.552Z,1.48
2022-12-29T00:28:23.612Z,1.10
2022-12-29T00:31:09.715Z,1.40
2022-12-29T00:33:55.591Z,1.77
2022-12-29T00:36:32.293Z,1.70
2022-12-29T00:39:22.423Z,1.30
2022-12-29T00:42:08.353Z,1.42
2022-12-29T00:44:35.503Z,1.70
2022-12-29T00:47:05.633Z,1.50
2022-12-29T00:49:33.247Z,1.63
2022-12-29T00:52:04.108Z,1.30
2022-12-29T00:54:32.481Z,1.65
2022-12-29T00:56:59.646Z,1.60
2022-12-29T00:59:27.344Z,1.33
2022-12-29T01:01:55.271Z,1.27
2022-12-29T01:04:23.562Z,1.17
2022-12-29T01:06:51.068Z,1.13
2022-12-29T01:09:37.637Z,1.17
2022-12-29T01:12:05.864Z,1.27
2022-12-29T01:14:33.194Z,1.20
2022-12-29T01:17:00.317Z,1.50
2022-12-29T01:19:27.797Z,1.20
2022-12-29T01:21:54.998Z,1.52
2022-12-29T01:24:22.561Z,1.08
2022-12-29T01:26:50.250Z,1.13
2022-12-29T01:29:17.702Z,0.95
2022-12-29T01:31:45.531Z,1.10
2022-12-29T01:34:12.829Z,0.95
2022-12-29T01:36:40.077Z,1.17
2022-12-29T01:39:07.285Z,1.05
2022-12-29T01:41:34.624Z,0.70
2022-12-29T01:44:02.684Z,1.00
2022-12-29T01:46:46.152Z,0.95
2022-12-29T01:49:21.147Z,1.05
2022-12-29T01:51:57.701Z,1.00
2022-12-29T01:54:28.431Z,0.70
2022-12-29T01:56:57.035Z,0.80
2022-12-29T01:59:26.265Z,1.00
2022-12-29T02:01:53.497Z,0.80
2022-12-29T02:04:20.754Z,0.90
2022-12-29T02:07:14.076Z,0.70
2022-12-29T02:09:41.761Z,0.65
2022-12-29T02:12:09.077Z,1.00
2022-12-29T02:14:36.260Z,0.77
2022-12-29T02:17:09.200Z,0.90
2022-12-29T02:19:55.238Z,0.80
2022-12-29T02:22:25.484Z,0.80
2022-12-29T02:25:08.073Z,0.65
2022-12-29T02:27:54.192Z,0.93
2022-12-29T02:30:40.104Z,1.00
2022-12-29T02:33:26.172Z,0.93
2022-12-29T02:35:59.551Z,0.80
2022-12-29T02:38:50.860Z,0.60
2022-12-29T02:41:22.016Z,0.70
2022-12-29T02:43:58.656Z,1.08
2022-12-29T02:46:37.816Z,0.80
2022-12-29T02:49:08.037Z,0.70
2022-12-29T02:51:38.855Z,0.75
2022-12-29T02:54:25.198Z,0.80
2022-12-29T02:56:52.403Z,0.85
2022-12-29T02:59:19.674Z,0.60
2022-12-29T03:02:06.850Z,0.63
2022-12-29T03:04:43.304Z,0.73
2022-12-29T03:07:13.581Z,0.50
2022-12-29T03:09:44.004Z,0.85
2022-12-29T03:12:17.278Z,0.80
2022-12-29T03:15:20.641Z,0.80
2022-12-29T03:17:56.411Z,0.95
2022-12-29T03:20:27.619Z,0.70
2022-12-29T03:22:57.183Z,0.60
2022-12-29T03:25:26.156Z,0.80
2022-12-29T03:27:57.305Z,0.80
2022-12-29T03:30:24.893Z,0.50
2022-12-29T03:33:00.371Z,0.60
2022-12-29T03:35:29.130Z,0.73
2022-12-29T03:38:07.890Z,0.60
2022-12-29T03:40:35.676Z,0.75
2022-12-29T03:43:04.082Z,0.88
2022-12-29T03:45:31.242Z,0.60
2022-12-29T03:47:58.505Z,0.60
2022-12-29T03:50:25.620Z,0.43
2022-12-29T03:52:52.771Z,0.60
2022-12-29T03:55:19.924Z,0.63
2022-12-29T03:57:47.135Z,0.68
2022-12-29T04:00:14.567Z,0.80
2022-12-29T04:02:41.889Z,0.85
2022-12-29T04:05:09.344Z,0.40
2022-12-29T04:07:36.494Z,0.63
2022-12-29T04:10:04.125Z,0.70
2022-12-29T04:12:31.223Z,0.65
2022-12-29T04:14:58.419Z,1.10
2022-12-29T04:17:25.622Z,0.70
2022-12-29T04:20:12.770Z,0.60
2022-12-29T04:22:39.952Z,0.90
2022-12-29T04:25:07.338Z,0.60
2022-12-29T04:27:34.636Z,0.73
2022-12-29T04:30:01.770Z,0.70
2022-12-29T04:32:28.891Z,0.77
2022-12-29T04:34:56.072Z,0.60
2022-12-29T04:37:23.286Z,0.90
2022-12-29T04:39:50.423Z,0.55
2022-12-29T04:42:17.583Z,0.82
2022-12-29T04:44:45.518Z,0.75
2022-12-29T04:47:12.668Z,0.52
2022-12-29T04:49:39.873Z,0.88
2022-12-29T04:52:09.264Z,0.63
2022-12-29T04:54:36.525Z,0.75
2022-12-29T04:57:03.675Z,0.95
2022-12-29T04:59:30.800Z,0.57
2022-12-29T05:01:58.208Z,0.77
2022-12-29T05:04:25.420Z,0.80
2022-12-29T05:06:52.600Z,0.63
2022-12-29T05:09:19.816Z,0.60
2022-12-29T05:11:47.020Z,0.77
2022-12-29T05:14:14.162Z,0.77
2022-12-29T05:16:41.709Z,0.60
2022-12-29T05:19:08.869Z,0.80
2022-12-29T05:21:36.028Z,0.90
2022-12-29T05:24:03.203Z,0.85
2022-12-29T05:26:30.374Z,1.90
2022-12-29T05:28:57.521Z,1.90
2022-12-29T05:31:24.702Z,1.67
2022-12-29T05:33:51.939Z,2.00
2022-12-29T05:36:19.514Z,1.70
2022-12-29T05:38:46.857Z,1.70
2022-12-29T05:41:14.017Z,0.82
2022-12-29T05:43:41.432Z,0.90
2022-12-29T05:46:08.617Z,0.80
2022-12-29T05:48:38.132Z,0.95
2022-12-29T05:51:05.752Z,1.20
2022-12-29T05:53:32.871Z,0.93
2022-12-29T05:56:00.806Z,1.25
2022-12-29T05:58:27.978Z,1.27
2022-12-29T06:00:55.162Z,0.82
2022-12-29T06:03:22.385Z,0.90
2022-12-29T06:05:49.633Z,1.20
2022-12-29T06:08:16.822Z,1.17
2022-12-29T06:10:43.964Z,0.98
2022-12-29T06:13:11.242Z,1.42
2022-12-29T06:15:38.416Z,1.70
2022-12-29T06:18:05.583Z,1.60
2022-12-29T06:20:32.765Z,2.35
2022-12-29T06:22:59.909Z,1.60
2022-12-29T06:25:27.066Z,1.38
2022-12-29T06:27:54.238Z,1.25
2022-12-29T06:30:21.369Z,1.30
2022-12-29T06:32:48.536Z,1.55
2022-12-29T06:35:15.710Z,1.20
2022-12-29T06:37:43.343Z,1.85
2022-12-29T06:40:10.937Z,1.25
2022-12-29T06:42:38.118Z,1.20
2022-12-29T06:45:05.590Z,1.33
2022-12-29T06:47:32.999Z,0.93
2022-12-29T06:50:00.201Z,1.17
2022-12-29T06:52:27.559Z,1.40
2022-12-29T06:54:54.721Z,1.50
2022-12-29T06:57:22.288Z,1.30
2022-12-29T06:59:49.621Z,1.80
2022-12-29T07:02:19.277Z,1.80
2022-12-29T07:04:46.832Z,1.35
2022-12-29T07:07:13.992Z,1.77
2022-12-29T07:09:41.716Z,1.30
2022-12-29T07:12:08.843Z,1.17
2022-12-29T07:14:42.684Z,1.30
2022-12-29T07:17:10.647Z,1.30
2022-12-29T07:19:37.937Z,1.27
2022-12-29T07:22:05.134Z,1.48
2022-12-29T07:24:32.307Z,1.30
2022-12-29T07:26:59.467Z,1.40
2022-12-29T07:29:26.604Z,1.23
2022-12-29T07:31:53.800Z,1.42
2022-12-29T07:34:21.075Z,1.10
2022-12-29T07:36:48.220Z,1.30
2022-12-29T07:39:15.400Z,1.45
2022-12-29T07:41:42.554Z,1.00
2022-12-29T07:44:10.948Z,1.40
2022-12-29T07:46:56.558Z,1.23
2022-12-29T07:49:24.874Z,1.30
2022-12-29T07:51:52.060Z,1.15
2022-12-29T07:54:19.482Z,1.27
2022-12-29T07:56:47.203Z,1.30
2022-12-29T07:59:14.336Z,1.25
2022-12-29T08:01:41.744Z,1.20
2022-12-29T08:04:09.185Z,1.35
2022-12-29T08:06:36.540Z,1.75
2022-12-29T08:09:11.317Z,1.42
2022-12-29T08:11:41.450Z,1.33
2022-12-29T08:14:08.851Z,1.50
2022-12-29T08:16:36.176Z,1.58
2022-12-29T08:19:04.779Z,1.33
2022-12-29T08:21:32.428Z,1.30
2022-12-29T08:24:00.164Z,1.33
2022-12-29T08:26:27.597Z,1.10
2022-12-29T08:28:55.489Z,1.10
2022-12-29T08:31:22.821Z,1.30
2022-12-29T08:33:50.202Z,1.20
2022-12-29T08:36:17.574Z,1.20
2022-12-29T08:38:44.805Z,1.30
2022-12-29T08:41:11.955Z,1.30
2022-12-29T08:43:39.099Z,0.93
2022-12-29T08:46:06.346Z,1.00
2022-12-29T08:48:33.559Z,1.27
2022-12-29T08:51:01.210Z,1.30
2022-12-29T08:53:28.425Z,2.30
2022-12-29T08:56:04.515Z,1.77
2022-12-29T08:58:32.236Z,1.42
2022-12-29T09:00:59.961Z,1.15
2022-12-29T09:04:03.829Z,1.50
2022-12-29T09:06:14.847Z,1.50
2022-12-29T09:08:42.000Z,1.40
2022-12-29T09:11:18.289Z,1.30
2022-12-29T09:13:45.590Z,1.50
2022-12-29T09:16:12.897Z,1.33
2022-12-29T09:18:40.513Z,1.10
2022-12-29T09:21:08.331Z,1.33
2022-12-29T09:23:35.904Z,1.20
2022-12-29T09:26:03.154Z,1.00
2022-12-29T09:28:30.423Z,1.30
2022-12-29T09:30:58.234Z,0.85
2022-12-29T09:33:25.648Z,1.00
2022-12-29T09:35:54.032Z,1.08
2022-12-29T09:38:21.339Z,1.10
2022-12-29T09:40:52.893Z,1.00
2022-12-29T09:43:38.761Z,1.08
2022-12-29T09:46:09.071Z,1.40
2022-12-29T09:48:41.482Z,0.90
2022-12-29T09:51:17.152Z,0.93
2022-12-29T09:53:51.370Z,1.00
2022-12-29T09:56:21.219Z,1.10
2022-12-29T09:59:14.552Z,1.10
2022-12-29T10:01:47.997Z,0.98
2022-12-29T10:04:15.421Z,0.90
2022-12-29T10:07:03.938Z,1.13
2022-12-29T10:09:42.068Z,1.92
2022-12-29T10:12:24.777Z,1.10
2022-12-29T10:15:13.553Z,1.10
2022-12-29T10:17:40.720Z,0.90
2022-12-29T10:20:18.971Z,0.93
2022-12-29T10:22:55.074Z,0.70
2022-12-29T10:25:31.140Z,1.00
2022-12-29T10:28:03.057Z,1.00
2022-12-29T10:30:30.560Z,1.50
2022-12-29T10:32:59.968Z,0.90
2022-12-29T10:35:28.664Z,0.93
2022-12-29T10:38:00.189Z,1.00
2022-12-29T10:40:29.192Z,1.23
2022-12-29T10:42:58.069Z,1.35
2022-12-29T10:45:30.600Z,0.95
2022-12-29T10:48:04.603Z,1.00
2022-12-29T10:50:31.789Z,1.20
2022-12-29T10:53:03.231Z,1.00
2022-12-29T10:55:34.083Z,1.30
2022-12-29T10:58:05.652Z,0.77
2022-12-29T11:00:33.930Z,0.90
2022-12-29T11:03:01.229Z,1.10
2022-12-29T11:05:31.469Z,0.85
2022-12-29T11:08:03.740Z,1.10
2022-12-29T11:10:31.435Z,0.95
2022-12-29T11:12:58.602Z,0.90
2022-12-29T11:15:25.823Z,0.93
2022-12-29T11:17:54.584Z,0.95
2022-12-29T11:20:33.931Z,0.85
2022-12-29T11:23:01.825Z,0.93
2022-12-29T11:25:29.469Z,1.00
2022-12-29T11:27:57.783Z,0.98
2022-12-29T11:30:26.393Z,1.00
2022-12-29T11:32:54.401Z,0.90
2022-12-29T11:35:32.333Z,1.23
2022-12-29T11:38:00.280Z,0.93
2022-12-29T11:40:27.788Z,1.13
2022-12-29T11:43:05.756Z,1.00
2022-12-29T11:45:34.918Z,0.75
2022-12-29T11:48:15.936Z,0.85
2022-12-29T11:50:44.478Z,0.90
2022-12-29T11:53:21.360Z,0.85
2022-12-29T11:55:53.281Z,1.00
2022-12-29T11:58:20.545Z,1.00
2022-12-29T12:00:48.934Z,0.80
2022-12-29T12:03:19.008Z,0.82
2022-12-29T12:05:53.586Z,0.95
2022-12-29T12:08:41.095Z,0.95
2022-12-29T12:11:08.229Z,0.90
2022-12-29T12:13:48.912Z,1.08
2022-12-29T12:16:18.594Z,0.90
2022-12-29T12:18:50.999Z,0.98
2022-12-29T12:21:22.252Z,0.77
2022-12-29T12:24:16.061Z,0.98
2022-12-29T12:26:56.722Z,1.10
2022-12-29T12:29:42.955Z,1.10
2022-12-29T12:32:24.085Z,0.88
2022-12-29T12:34:51.788Z,0.93
2022-12-29T12:37:31.171Z,1.40
2022-12-29T12:40:04.405Z,0.93
2022-12-29T12:42:31.557Z,1.02
2022-12-29T12:45:17.620Z,1.00
2022-12-29T12:47:57.074Z,1.08
2022-12-29T12:50:43.271Z,1.27
2022-12-29T12:53:24.897Z,1.13
2022-12-29T12:55:55.056Z,0.98
2022-12-29T12:58:22.228Z,1.00
2022-12-29T13:00:49.346Z,0.90
2022-12-29T13:03:28.321Z,1.00
2022-12-29T13:06:14.422Z,1.20
2022-12-29T13:08:59.128Z,0.90
2022-12-29T13:11:29.339Z,1.10
2022-12-29T13:13:59.435Z,1.40
2022-12-29T13:16:26.585Z,1.00
2022-12-29T13:19:01.091Z,1.10
2022-12-29T13:22:01.810Z,1.10
2022-12-29T13:24:57.292Z,1.00
2022-12-29T13:27:37.273Z,0.70
2022-12-29T13:30:25.352Z,0.80
2022-12-29T13:32:59.047Z,0.98
2022-12-29T13:35:35.295Z,1.05
2022-12-29T13:38:10.926Z,1.70
2022-12-29T13:40:40.448Z,1.08
2022-12-29T13:43:07.837Z,0.88
2022-12-29T13:45:36.616Z,0.90
2022-12-29T13:48:16.402Z,1.05
2022-12-29T13:50:44.988Z,0.90
2022-12-29T13:53:17.390Z,1.05
2022-12-29T13:55:50.784Z,2.97
2022-12-29T13:58:17.935Z,1.70
2022-12-29T14:00:57.017Z,1.45
2022-12-29T14:03:31.150Z,1.27
2022-12-29T14:06:17.200Z,1.25
2022-12-29T14:08:46.020Z,1.25
2022-12-29T14:11:15.751Z,1.48
2022-12-29T14:13:45.104Z,1.08
2022-12-29T14:16:29.453Z,1.67
2022-12-29T14:18:58.343Z,1.33
2022-12-29T14:21:30.657Z,1.60
2022-12-29T14:24:18.156Z,1.25
2022-12-29T14:26:45.374Z,1.20
2022-12-29T14:29:38.657Z,1.42
2022-12-29T14:32:24.707Z,1.48
2022-12-29T14:34:56.280Z,1.30
2022-12-29T14:37:23.435Z,1.65
2022-12-29T14:39:50.703Z,1.73
2022-12-29T14:42:23.674Z,1.63
2022-12-29T14:44:52.369Z,1.75
2022-12-29T14:47:22.602Z,1.80
2022-12-29T14:49:49.922Z,1.70
2022-12-29T14:52:21.800Z,1.77
2022-12-29T14:54:50.756Z,1.92
2022-12-29T14:57:22.306Z,1.90
2022-12-29T14:59:50.387Z,1.80
2022-12-29T15:02:20.721Z,1.92
2022-12-29T15:04:48.876Z,1.73
2022-12-29T15:07:16.927Z,2.03
2022-12-29T15:09:44.726Z,1.83
2022-12-29T15:12:18.004Z,1.90
2022-12-29T15:14:52.705Z,2.20
2022-12-29T15:17:26.111Z,2.47
2022-12-29T15:19:53.567Z,2.33
2022-12-29T15:22:20.898Z,2.10
2022-12-29T15:24:51.574Z,2.47
2022-12-29T15:27:21.398Z,2.10
2022-12-29T15:29:48.839Z,1.85
2022-12-29T15:32:26.448Z,2.28
2022-12-29T15:34:55.223Z,1.70
2022-12-29T15:37:27.182Z,2.10
2022-12-29T15:39:55.287Z,2.20
2022-12-29T15:42:28.608Z,2.00
2022-12-29T15:45:09.352Z,2.13
2022-12-29T15:47:37.826Z,2.60
2022-12-29T15:50:11.200Z,2.10
2022-12-29T15:52:40.771Z,2.13
2022-12-29T15:55:11.667Z,1.85
2022-12-29T15:57:43.837Z,2.30
2022-12-29T16:00:43.634Z,2.10
2022-12-29T16:03:14.525Z,1.77
2022-12-29T16:05:42.127Z,1.85
2022-12-29T16:08:28.111Z,1.90
2022-12-29T16:10:57.253Z,2.33
2022-12-29T16:13:24.382Z,2.35
2022-12-29T16:15:53.840Z,2.10
2022-12-29T16:18:31.943Z,2.17
2022-12-29T16:20:59.196Z,1.95
2022-12-29T16:23:28.230Z,2.10
2022-12-29T16:25:56.412Z,2.08
2022-12-29T16:28:24.839Z,2.67
2022-12-29T16:31:05.359Z,2.75
2022-12-29T16:33:55.820Z,2.30
2022-12-29T16:36:22.976Z,2.95
2022-12-29T16:38:50.187Z,3.20
2022-12-29T16:41:33.350Z,3.38
2022-12-29T16:44:15.154Z,2.63
2022-12-29T16:46:58.584Z,2.83
2022-12-29T16:49:26.916Z,2.53
2022-12-29T16:51:55.784Z,2.90
2022-12-29T16:54:25.012Z,2.58
2022-12-29T16:56:53.707Z,3.30
2022-12-29T16:59:20.971Z,2.88
2022-12-29T17:01:48.368Z,3.17
2022-12-29T17:04:16.000Z,2.90
2022-12-29T17:06:43.222Z,2.85
2022-12-29T17:09:20.647Z,2.60
2022-12-29T17:12:00.302Z,2.80
2022-12-29T17:14:36.962Z,2.60
2022-12-29T17:17:05.521Z,2.33
2022-12-29T17:19:34.545Z,2.50
2022-12-29T17:22:02.523Z,2.20
2022-12-29T17:24:29.852Z,2.35
2022-12-29T17:26:59.343Z,2.10
2022-12-29T17:29:29.559Z,2.58
2022-12-29T17:31:56.867Z,2.58
2022-12-29T17:34:24.379Z,2.20
2022-12-29T17:36:51.704Z,2.25
2022-12-29T17:39:18.952Z,2.65
2022-12-29T17:41:46.631Z,2.40
2022-12-29T17:44:18.900Z,3.47
2022-12-29T17:46:47.184Z,3.08
2022-12-29T17:49:15.662Z,2.50
2022-12-29T17:51:47.024Z,2.65
2022-12-29T17:54:24.463Z,2.40
2022-12-29T17:56:52.017Z,2.20
2022-12-29T17:59:19.280Z,2.60
2022-12-29T18:01:47.894Z,2.63
2022-12-29T18:04:16.777Z,2.80
2022-12-29T18:06:44.557Z,2.75
2022-12-29T18:09:12.169Z,2.40
2022-12-29T18:11:40.452Z,3.20
2022-12-29T18:14:16.939Z,3.30
2022-12-29T18:16:44.310Z,2.60
2022-12-29T18:19:11.559Z,2.60
2022-12-29T18:21:39.240Z,3.05
2022-12-29T18:24:06.714Z,2.42
2022-12-29T18:26:35.716Z,3.08
2022-12-29T18:29:03.057Z,2.78
2022-12-29T18:31:31.567Z,2.92
2022-12-29T18:33:59.776Z,3.70
2022-12-29T18:36:27.101Z,4.22
2022-12-29T18:38:54.863Z,4.40
2022-12-29T18:41:23.190Z,4.07
2022-12-29T18:43:50.452Z,3.65
2022-12-29T18:46:22.806Z,3.63
2022-12-29T18:48:50.803Z,3.92
2022-12-29T18:51:19.054Z,3.85
2022-12-29T18:53:46.620Z,4.38
2022-12-29T18:56:14.730Z,3.63
2022-12-29T18:58:42.152Z,4.30
2022-12-29T19:01:19.092Z,3.85
2022-12-29T19:03:46.429Z,4.15
2022-12-29T19:06:13.662Z,3.33
2022-12-29T19:08:40.918Z,3.45
2022-12-29T19:11:08.207Z,3.13
2022-12-29T19:13:35.395Z,3.63
2022-12-29T19:16:02.679Z,3.78
2022-12-29T19:18:43.703Z,3.50
2022-12-29T19:21:11.841Z,4.63
2022-12-29T19:23:39.029Z,3.85
2022-12-29T19:26:06.370Z,4.03
2022-12-29T19:28:33.542Z,3.80
2022-12-29T19:31:01.498Z,4.40
2022-12-29T19:33:29.404Z,3.78
2022-12-29T19:36:01.176Z,3.90
2022-12-29T19:38:28.487Z,3.70
2022-12-29T19:40:55.708Z,3.85
2022-12-29T19:43:23.104Z,3.50
2022-12-29T19:45:52.462Z,2.80
2022-12-29T19:48:20.739Z,2.70
2022-12-29T19:50:48.243Z,2.17
2022-12-29T19:53:15.950Z,2.45
2022-12-29T19:55:46.891Z,2.10
2022-12-29T19:58:14.709Z,2.15
2022-12-29T20:00:42.942Z,2.22
2022-12-29T20:03:10.482Z,2.55
2022-12-29T20:05:38.088Z,2.60
2022-12-29T20:08:05.377Z,3.10
2022-12-29T20:10:32.532Z,3.55
2022-12-29T20:12:59.725Z,4.03
2022-12-29T20:15:26.914Z,4.15
2022-12-29T20:20:41.192Z,2.90
2022-12-29T20:23:08.501Z,2.45
2022-12-29T20:25:50.906Z,2.20
2022-12-29T20:28:18.060Z,2.10
2022-12-29T20:30:45.275Z,1.65
2022-12-29T20:33:12.879Z,1.92
2022-12-29T20:35:40.185Z,2.08
2022-12-29T20:38:07.970Z,1.80
2022-12-29T20:40:40.872Z,2.20
2022-12-29T20:43:11.503Z,2.92
2022-12-29T20:45:38.738Z,2.13
2022-12-29T20:48:05.985Z,2.20
2022-12-29T20:50:33.208Z,2.50
2022-12-29T20:53:00.334Z,2.30
2022-12-29T20:55:27.517Z,2.58
2022-12-29T20:58:23.288Z,2.35
2022-12-29T21:00:41.813Z,2.50
2022-12-29T21:03:09.127Z,2.20
2022-12-29T21:05:37.505Z,2.33
2022-12-29T21:08:05.191Z,2.17
2022-12-29T21:10:32.331Z,2.20
2022-12-29T21:13:01.559Z,2.15
2022-12-29T21:15:29.975Z,2.88
2022-12-29T21:17:57.406Z,2.75
2022-12-29T21:20:31.702Z,2.50
2022-12-29T21:23:00.714Z,2.42
2022-12-29T21:25:36.820Z,2.53
2022-12-29T21:28:08.347Z,4.13
2022-12-29T21:30:35.675Z,2.63
2022-12-29T21:33:03.326Z,2.88
2022-12-29T21:35:30.866Z,4.60
2022-12-29T21:37:58.101Z,3.20
2022-12-29T21:40:25.282Z,2.90
2022-12-29T21:42:52.442Z,4.25
2022-12-29T21:45:26.015Z,3.35
2022-12-29T21:48:12.576Z,3.97
2022-12-29T21:51:02.460Z,3.70
2022-12-29T21:53:39.623Z,3.65
2022-12-29T21:56:06.841Z,4.22
2022-12-29T21:58:52.887Z,4.50
2022-12-29T22:01:39.030Z,2.70
2022-12-29T22:04:25.162Z,2.30
2022-12-29T22:07:10.983Z,2.40
2022-12-29T22:09:57.048Z,2.55
2022-12-29T22:12:43.079Z,2.80
2022-12-29T22:15:10.412Z,2.67
2022-12-29T22:17:38.449Z,2.88
2022-12-29T22:20:07.240Z,2.65
2022-12-29T22:22:34.423Z,2.70
2022-12-29T22:25:02.716Z,2.78
2022-12-29T22:27:29.937Z,3.05
2022-12-29T22:29:57.120Z,3.13
2022-12-29T22:32:24.269Z,2.63
2022-12-29T22:34:51.553Z,3.10
2022-12-29T22:37:19.022Z,2.55
2022-12-29T22:39:46.287Z,3.03
2022-12-29T22:42:13.438Z,2.83
2022-12-29T22:44:40.610Z,3.00
2022-12-29T22:47:08.070Z,2.60
2022-12-29T22:49:35.228Z,3.05
2022-12-29T22:52:02.563Z,2.90
2022-12-29T22:54:29.742Z,2.30
2022-12-29T22:56:57.085Z,2.33
2022-12-29T22:59:24.257Z,2.35
2022-12-29T23:01:51.503Z,2.38
2022-12-29T23:07:06.454Z,2.20
2022-12-29T23:09:33.625Z,2.40
2022-12-29T23:12:00.771Z,2.00
2022-12-29T23:14:27.909Z,2.80
2022-12-29T23:16:55.057Z,1.95
2022-12-29T23:19:22.206Z,2.45
2022-12-29T23:21:49.532Z,2.10
2022-12-29T23:24:16.696Z,2.22
2022-12-29T23:26:45.515Z,2.10
2022-12-29T23:29:16.979Z,2.45
2022-12-29T23:31:44.296Z,2.15
2022-12-29T23:34:12.552Z,2.00
2022-12-29T23:36:40.260Z,2.00
2022-12-29T23:39:10.799Z,1.85
2022-12-29T23:41:37.961Z,1.63
2022-12-29T23:44:05.176Z,1.77
2022-12-29T23:46:32.303Z,1.92
2022-12-29T23:48:59.526Z,1.50
2022-12-29T23:51:26.758Z,1.42
2022-12-29T23:53:54.007Z,1.40
2022-12-29T23:56:23.524Z,1.50
2022-12-29T23:58:51.684Z,1.38
